sensor_id;sensor_type;location;lat;lon;timestamp;temperature;humidity
4677;DHT22;2352;48.180;11.478;2023-03-26T00:00:15;11.00;89.20
4677;DHT22;2352;48.180;11.478;2023-03-26T00:03:18;10.90;88.80
4677;DHT22;2352;48.180;11.478;2023-03-26T00:06:24;11.00;89.00
4677;DHT22;2352;48.180;11.478;2023-03-26T00:09:27;11.00;89.00
4677;DHT22;2352;48.180;11.478;2023-03-26T00:12:32;10.90;89.30
4677;DHT22;2352;48.180;11.478;2023-03-26T00:15:35;10.90;89.30
4677;DHT22;2352;48.180;11.478;2023-03-26T00:18:39;10.80;89.50
4677;DHT22;2352;48.180;11.478;2023-03-26T00:21:43;10.80;89.40
4677;DHT22;2352;48.180;11.478;2023-03-26T00:24:45;10.80;89.50
4677;DHT22;2352;48.180;11.478;2023-03-26T00:27:52;10.70;90.00
4677;DHT22;2352;48.180;11.478;2023-03-26T00:30:59;10.60;90.00
4677;DHT22;2352;48.180;11.478;2023-03-26T00:34:03;10.60;90.20
4677;DHT22;2352;48.180;11.478;2023-03-26T00:37:06;10.50;90.30
4677;DHT22;2352;48.180;11.478;2023-03-26T00:40:10;10.60;90.10
4677;DHT22;2352;48.180;11.478;2023-03-26T00:43:14;10.40;90.40
4677;DHT22;2352;48.180;11.478;2023-03-26T00:46:20;10.50;90.50
4677;DHT22;2352;48.180;11.478;2023-03-26T00:49:23;10.50;90.30
4677;DHT22;2352;48.180;11.478;2023-03-26T00:52:27;10.60;90.20
4677;DHT22;2352;48.180;11.478;2023-03-26T00:55:30;10.70;90.10
4677;DHT22;2352;48.180;11.478;2023-03-26T00:58:34;10.60;90.10
4677;DHT22;2352;48.180;11.478;2023-03-26T01:01:37;10.60;90.20
4677;DHT22;2352;48.180;11.478;2023-03-26T01:04:44;10.60;90.20
4677;DHT22;2352;48.180;11.478;2023-03-26T01:07:47;10.60;90.60
4677;DHT22;2352;48.180;11.478;2023-03-26T01:10:51;10.60;90.20
4677;DHT22;2352;48.180;11.478;2023-03-26T01:14:07;10.60;90.10
4677;DHT22;2352;48.180;11.478;2023-03-26T01:17:11;10.60;90.20
4677;DHT22;2352;48.180;11.478;2023-03-26T01:20:18;10.50;90.30
4677;DHT22;2352;48.180;11.478;2023-03-26T01:23:33;10.70;90.20
4677;DHT22;2352;48.180;11.478;2023-03-26T01:27:03;10.60;90.20
4677;DHT22;2352;48.180;11.478;2023-03-26T01:30:15;10.60;90.30
4677;DHT22;2352;48.180;11.478;2023-03-26T01:33:24;10.70;90.10
4677;DHT22;2352;48.180;11.478;2023-03-26T01:36:40;10.70;90.20
4677;DHT22;2352;48.180;11.478;2023-03-26T01:39:49;10.70;90.00
4677;DHT22;2352;48.180;11.478;2023-03-26T01:42:59;10.60;90.30
4677;DHT22;2352;48.180;11.478;2023-03-26T01:46:05;10.60;90.30
4677;DHT22;2352;48.180;11.478;2023-03-26T01:49:11;10.60;90.30
4677;DHT22;2352;48.180;11.478;2023-03-26T01:52:16;10.50;90.50
4677;DHT22;2352;48.180;11.478;2023-03-26T01:55:22;10.60;90.40
4677;DHT22;2352;48.180;11.478;2023-03-26T01:58:35;10.60;90.40
4677;DHT22;2352;48.180;11.478;2023-03-26T02:01:43;10.30;90.60
4677;DHT22;2352;48.180;11.478;2023-03-26T02:04:51;10.30;90.80
4677;DHT22;2352;48.180;11.478;2023-03-26T02:08:01;10.40;90.80
4677;DHT22;2352;48.180;11.478;2023-03-26T02:11:09;10.50;90.50
4677;DHT22;2352;48.180;11.478;2023-03-26T02:14:15;10.60;90.60
4677;DHT22;2352;48.180;11.478;2023-03-26T02:17:18;10.70;90.20
4677;DHT22;2352;48.180;11.478;2023-03-26T02:20:25;10.70;90.10
4677;DHT22;2352;48.180;11.478;2023-03-26T02:23:30;10.60;90.30
4677;DHT22;2352;48.180;11.478;2023-03-26T02:26:36;10.60;90.30
4677;DHT22;2352;48.180;11.478;2023-03-26T02:29:40;10.70;90.30
4677;DHT22;2352;48.180;11.478;2023-03-26T02:32:43;10.70;90.50
4677;DHT22;2352;48.180;11.478;2023-03-26T02:35:45;10.60;90.60
4677;DHT22;2352;48.180;11.478;2023-03-26T02:38:49;10.60;90.50
4677;DHT22;2352;48.180;11.478;2023-03-26T02:41:52;10.50;90.40
4677;DHT22;2352;48.180;11.478;2023-03-26T02:44:56;10.50;90.60
4677;DHT22;2352;48.180;11.478;2023-03-26T02:47:59;10.50;90.40
4677;DHT22;2352;48.180;11.478;2023-03-26T02:51:03;10.40;90.60
4677;DHT22;2352;48.180;11.478;2023-03-26T02:54:07;10.50;90.50
4677;DHT22;2352;48.180;11.478;2023-03-26T02:57:10;10.50;90.60
4677;DHT22;2352;48.180;11.478;2023-03-26T03:00:15;10.60;90.70
4677;DHT22;2352;48.180;11.478;2023-03-26T03:03:18;10.60;90.50
4677;DHT22;2352;48.180;11.478;2023-03-26T03:06:24;10.60;90.50
4677;DHT22;2352;48.180;11.478;2023-03-26T03:09:31;10.50;90.60
4677;DHT22;2352;48.180;11.478;2023-03-26T03:12:34;10.40;90.80
4677;DHT22;2352;48.180;11.478;2023-03-26T03:15:38;10.40;90.70
4677;DHT22;2352;48.180;11.478;2023-03-26T03:18:41;10.50;90.70
4677;DHT22;2352;48.180;11.478;2023-03-26T03:21:44;10.50;90.80
4677;DHT22;2352;48.180;11.478;2023-03-26T03:24:47;10.50;90.70
4677;DHT22;2352;48.180;11.478;2023-03-26T03:27:49;10.40;90.90
4677;DHT22;2352;48.180;11.478;2023-03-26T03:30:55;10.40;91.00
4677;DHT22;2352;48.180;11.478;2023-03-26T03:33:59;10.40;90.90
4677;DHT22;2352;48.180;11.478;2023-03-26T03:37:02;10.50;90.90
4677;DHT22;2352;48.180;11.478;2023-03-26T03:40:06;10.40;91.10
4677;DHT22;2352;48.180;11.478;2023-03-26T03:43:11;10.40;91.00
4677;DHT22;2352;48.180;11.478;2023-03-26T03:46:15;10.50;91.10
4677;DHT22;2352;48.180;11.478;2023-03-26T03:49:18;10.40;91.30
4677;DHT22;2352;48.180;11.478;2023-03-26T03:52:21;10.50;91.00
4677;DHT22;2352;48.180;11.478;2023-03-26T03:55:23;10.50;91.00
4677;DHT22;2352;48.180;11.478;2023-03-26T03:58:28;10.50;91.10
4677;DHT22;2352;48.180;11.478;2023-03-26T04:01:32;10.50;91.20
4677;DHT22;2352;48.180;11.478;2023-03-26T04:04:35;10.50;91.00
4677;DHT22;2352;48.180;11.478;2023-03-26T04:07:38;10.60;91.10
4677;DHT22;2352;48.180;11.478;2023-03-26T04:10:41;10.60;91.10
4677;DHT22;2352;48.180;11.478;2023-03-26T04:13:44;10.70;91.20
4677;DHT22;2352;48.180;11.478;2023-03-26T04:16:48;10.70;91.40
4677;DHT22;2352;48.180;11.478;2023-03-26T04:19:51;10.70;91.60
4677;DHT22;2352;48.180;11.478;2023-03-26T04:22:55;10.70;91.30
4677;DHT22;2352;48.180;11.478;2023-03-26T04:26:01;10.70;91.20
4677;DHT22;2352;48.180;11.478;2023-03-26T04:29:07;10.60;91.20
4677;DHT22;2352;48.180;11.478;2023-03-26T04:32:21;10.60;91.50
4677;DHT22;2352;48.180;11.478;2023-03-26T04:35:25;10.60;91.40
4677;DHT22;2352;48.180;11.478;2023-03-26T04:38:40;10.50;91.40
4677;DHT22;2352;48.180;11.478;2023-03-26T04:41:43;10.50;91.40
4677;DHT22;2352;48.180;11.478;2023-03-26T04:44:47;10.50;91.90
4677;DHT22;2352;48.180;11.478;2023-03-26T04:47:52;10.50;91.80
4677;DHT22;2352;48.180;11.478;2023-03-26T04:50:56;10.50;92.10
4677;DHT22;2352;48.180;11.478;2023-03-26T04:54:00;10.50;92.00
4677;DHT22;2352;48.180;11.478;2023-03-26T04:57:06;10.50;91.90
4677;DHT22;2352;48.180;11.478;2023-03-26T05:00:13;10.50;91.90
4677;DHT22;2352;48.180;11.478;2023-03-26T05:03:21;10.50;91.90
4677;DHT22;2352;48.180;11.478;2023-03-26T05:06:24;10.50;92.40
4677;DHT22;2352;48.180;11.478;2023-03-26T05:09:28;10.40;92.40
4677;DHT22;2352;48.180;11.478;2023-03-26T05:12:31;10.40;92.50
4677;DHT22;2352;48.180;11.478;2023-03-26T05:15:34;10.40;92.50
4677;DHT22;2352;48.180;11.478;2023-03-26T05:18:38;10.40;92.30
4677;DHT22;2352;48.180;11.478;2023-03-26T05:21:41;10.40;92.30
4677;DHT22;2352;48.180;11.478;2023-03-26T05:24:43;10.40;92.40
4677;DHT22;2352;48.180;11.478;2023-03-26T05:27:46;10.30;92.70
4677;DHT22;2352;48.180;11.478;2023-03-26T05:30:50;10.30;92.60
4677;DHT22;2352;48.180;11.478;2023-03-26T05:33:55;10.30;92.50
4677;DHT22;2352;48.180;11.478;2023-03-26T05:36:58;10.40;92.70
4677;DHT22;2352;48.180;11.478;2023-03-26T05:40:01;10.40;92.70
4677;DHT22;2352;48.180;11.478;2023-03-26T05:43:04;10.40;92.90
4677;DHT22;2352;48.180;11.478;2023-03-26T05:46:07;10.50;92.90
4677;DHT22;2352;48.180;11.478;2023-03-26T05:49:11;10.50;93.20
4677;DHT22;2352;48.180;11.478;2023-03-26T05:52:14;10.50;93.10
4677;DHT22;2352;48.180;11.478;2023-03-26T05:55:19;10.50;93.00
4677;DHT22;2352;48.180;11.478;2023-03-26T05:58:23;10.50;92.80
4677;DHT22;2352;48.180;11.478;2023-03-26T06:01:25;10.50;92.90
4677;DHT22;2352;48.180;11.478;2023-03-26T06:04:31;10.50;93.10
4677;DHT22;2352;48.180;11.478;2023-03-26T06:07:34;10.60;93.30
4677;DHT22;2352;48.180;11.478;2023-03-26T06:10:37;10.60;93.40
4677;DHT22;2352;48.180;11.478;2023-03-26T06:13:40;10.60;93.00
4677;DHT22;2352;48.180;11.478;2023-03-26T06:16:43;10.70;92.80
4677;DHT22;2352;48.180;11.478;2023-03-26T06:19:47;10.60;93.30
4677;DHT22;2352;48.180;11.478;2023-03-26T06:22:50;10.70;92.70
4677;DHT22;2352;48.180;11.478;2023-03-26T06:25:53;10.70;92.40
4677;DHT22;2352;48.180;11.478;2023-03-26T06:28:55;10.80;92.60
4677;DHT22;2352;48.180;11.478;2023-03-26T06:31:58;10.80;92.90
4677;DHT22;2352;48.180;11.478;2023-03-26T06:35:20;10.80;92.10
4677;DHT22;2352;48.180;11.478;2023-03-26T06:38:23;10.80;92.00
4677;DHT22;2352;48.180;11.478;2023-03-26T06:41:26;10.90;92.00
4677;DHT22;2352;48.180;11.478;2023-03-26T06:44:30;10.90;91.80
4677;DHT22;2352;48.180;11.478;2023-03-26T06:47:33;10.90;92.00
4677;DHT22;2352;48.180;11.478;2023-03-26T06:50:37;10.90;92.10
4677;DHT22;2352;48.180;11.478;2023-03-26T06:53:39;11.00;92.40
4677;DHT22;2352;48.180;11.478;2023-03-26T06:56:42;10.90;91.90
4677;DHT22;2352;48.180;11.478;2023-03-26T06:59:46;10.90;91.90
4677;DHT22;2352;48.180;11.478;2023-03-26T07:02:48;10.90;91.20
4677;DHT22;2352;48.180;11.478;2023-03-26T07:05:53;10.90;91.60
4677;DHT22;2352;48.180;11.478;2023-03-26T07:08:55;10.80;91.90
4677;DHT22;2352;48.180;11.478;2023-03-26T07:11:58;10.70;91.10
4677;DHT22;2352;48.180;11.478;2023-03-26T07:15:02;10.70;90.70
4677;DHT22;2352;48.180;11.478;2023-03-26T07:18:06;10.60;91.10
4677;DHT22;2352;48.180;11.478;2023-03-26T07:21:11;10.70;92.40
4677;DHT22;2352;48.180;11.478;2023-03-26T07:24:15;10.70;92.30
4677;DHT22;2352;48.180;11.478;2023-03-26T07:27:30;10.70;92.50
4677;DHT22;2352;48.180;11.478;2023-03-26T07:30:45;10.80;93.20
4677;DHT22;2352;48.180;11.478;2023-03-26T07:33:55;10.80;93.40
4677;DHT22;2352;48.180;11.478;2023-03-26T07:37:08;10.90;93.90
4677;DHT22;2352;48.180;11.478;2023-03-26T07:40:26;11.00;95.30
4677;DHT22;2352;48.180;11.478;2023-03-26T07:43:44;11.10;95.50
4677;DHT22;2352;48.180;11.478;2023-03-26T07:46:48;11.20;95.00
4677;DHT22;2352;48.180;11.478;2023-03-26T07:49:54;11.20;96.20
4677;DHT22;2352;48.180;11.478;2023-03-26T07:53:00;11.30;96.10
4677;DHT22;2352;48.180;11.478;2023-03-26T07:56:09;11.30;96.50
4677;DHT22;2352;48.180;11.478;2023-03-26T07:59:20;11.30;96.40
4677;DHT22;2352;48.180;11.478;2023-03-26T08:02:42;11.30;96.90
4677;DHT22;2352;48.180;11.478;2023-03-26T08:05:51;11.30;98.20
4677;DHT22;2352;48.180;11.478;2023-03-26T08:09:01;11.40;98.30
4677;DHT22;2352;48.180;11.478;2023-03-26T08:12:16;11.40;98.30
4677;DHT22;2352;48.180;11.478;2023-03-26T08:15:25;11.40;98.30
4677;DHT22;2352;48.180;11.478;2023-03-26T08:18:39;11.40;98.60
4677;DHT22;2352;48.180;11.478;2023-03-26T08:21:48;11.50;98.90
4677;DHT22;2352;48.180;11.478;2023-03-26T08:25:09;11.50;98.50
4677;DHT22;2352;48.180;11.478;2023-03-26T08:28:30;11.50;98.80
4677;DHT22;2352;48.180;11.478;2023-03-26T08:31:40;11.50;98.20
4677;DHT22;2352;48.180;11.478;2023-03-26T08:34:44;11.50;98.80
4677;DHT22;2352;48.180;11.478;2023-03-26T08:37:47;11.50;98.30
4677;DHT22;2352;48.180;11.478;2023-03-26T08:52:27;11.60;97.40
4677;DHT22;2352;48.180;11.478;2023-03-26T08:55:40;11.60;97.20
4677;DHT22;2352;48.180;11.478;2023-03-26T08:59:23;11.50;97.10
4677;DHT22;2352;48.180;11.478;2023-03-26T09:02:51;11.50;97.40
4677;DHT22;2352;48.180;11.478;2023-03-26T09:06:33;11.40;96.90
4677;DHT22;2352;48.180;11.478;2023-03-26T09:17:19;11.40;97.10
4677;DHT22;2352;48.180;11.478;2023-03-26T09:20:50;11.40;98.10
4677;DHT22;2352;48.180;11.478;2023-03-26T09:24:10;11.20;98.70
4677;DHT22;2352;48.180;11.478;2023-03-26T09:27:34;11.40;99.10
4677;DHT22;2352;48.180;11.478;2023-03-26T09:30:59;11.50;99.00
4677;DHT22;2352;48.180;11.478;2023-03-26T09:34:32;11.60;98.50
4677;DHT22;2352;48.180;11.478;2023-03-26T09:37:50;11.50;98.00
4677;DHT22;2352;48.180;11.478;2023-03-26T09:41:07;11.50;97.40
4677;DHT22;2352;48.180;11.478;2023-03-26T09:44:27;11.50;98.10
4677;DHT22;2352;48.180;11.478;2023-03-26T09:47:46;11.50;98.30
4677;DHT22;2352;48.180;11.478;2023-03-26T09:58:14;11.50;98.40
4677;DHT22;2352;48.180;11.478;2023-03-26T10:01:29;11.50;98.80
4677;DHT22;2352;48.180;11.478;2023-03-26T10:08:39;11.50;98.90
4677;DHT22;2352;48.180;11.478;2023-03-26T10:11:56;11.50;99.30
4677;DHT22;2352;48.180;11.478;2023-03-26T10:15:15;11.50;98.90
4677;DHT22;2352;48.180;11.478;2023-03-26T10:18:32;11.50;99.30
4677;DHT22;2352;48.180;11.478;2023-03-26T10:21:44;11.50;99.60
4677;DHT22;2352;48.180;11.478;2023-03-26T10:25:16;11.50;99.70
4677;DHT22;2352;48.180;11.478;2023-03-26T10:28:33;11.60;99.70
4677;DHT22;2352;48.180;11.478;2023-03-26T10:31:42;11.50;99.20
4677;DHT22;2352;48.180;11.478;2023-03-26T10:38:15;11.50;99.30
4677;DHT22;2352;48.180;11.478;2023-03-26T10:41:25;11.50;99.60
4677;DHT22;2352;48.180;11.478;2023-03-26T10:44:41;11.50;99.90
4677;DHT22;2352;48.180;11.478;2023-03-26T10:48:01;11.60;99.90
4677;DHT22;2352;48.180;11.478;2023-03-26T10:51:30;11.50;99.60
4677;DHT22;2352;48.180;11.478;2023-03-26T10:54:47;11.40;99.90
4677;DHT22;2352;48.180;11.478;2023-03-26T10:57:53;11.20;99.90
4677;DHT22;2352;48.180;11.478;2023-03-26T11:01:00;11.10;99.90
4677;DHT22;2352;48.180;11.478;2023-03-26T11:04:17;10.90;99.90
4677;DHT22;2352;48.180;11.478;2023-03-26T11:07:27;11.00;99.90
4677;DHT22;2352;48.180;11.478;2023-03-26T11:10:41;11.00;99.90
4677;DHT22;2352;48.180;11.478;2023-03-26T11:13:54;11.00;99.90
4677;DHT22;2352;48.180;11.478;2023-03-26T11:17:04;11.10;99.90
4677;DHT22;2352;48.180;11.478;2023-03-26T11:20:38;11.20;99.90
4677;DHT22;2352;48.180;11.478;2023-03-26T11:23:48;11.30;99.90
4677;DHT22;2352;48.180;11.478;2023-03-26T11:27:10;11.20;99.90
4677;DHT22;2352;48.180;11.478;2023-03-26T11:30:28;11.20;99.90
4677;DHT22;2352;48.180;11.478;2023-03-26T11:33:36;11.20;99.90
4677;DHT22;2352;48.180;11.478;2023-03-26T11:36:51;11.10;99.90
4677;DHT22;2352;48.180;11.478;2023-03-26T11:39:56;10.90;99.90
4677;DHT22;2352;48.180;11.478;2023-03-26T11:43:02;10.90;99.90
4677;DHT22;2352;48.180;11.478;2023-03-26T11:46:08;10.70;99.90
4677;DHT22;2352;48.180;11.478;2023-03-26T11:49:15;10.60;99.90
4677;DHT22;2352;48.180;11.478;2023-03-26T11:52:20;10.80;99.90
4677;DHT22;2352;48.180;11.478;2023-03-26T11:55:24;10.60;99.90
4677;DHT22;2352;48.180;11.478;2023-03-26T11:58:30;10.50;99.90
4677;DHT22;2352;48.180;11.478;2023-03-26T12:01:43;10.50;99.90
4677;DHT22;2352;48.180;11.478;2023-03-26T12:04:52;10.40;99.90
4677;DHT22;2352;48.180;11.478;2023-03-26T12:08:17;10.30;99.90
4677;DHT22;2352;48.180;11.478;2023-03-26T12:11:23;10.50;99.90
4677;DHT22;2352;48.180;11.478;2023-03-26T12:14:30;10.70;99.90
4677;DHT22;2352;48.180;11.478;2023-03-26T12:17:35;10.90;99.90
4677;DHT22;2352;48.180;11.478;2023-03-26T12:20:38;11.20;99.90
4677;DHT22;2352;48.180;11.478;2023-03-26T12:23:53;11.40;99.90
4677;DHT22;2352;48.180;11.478;2023-03-26T12:26:59;11.40;99.50
4677;DHT22;2352;48.180;11.478;2023-03-26T12:30:10;11.40;99.20
4677;DHT22;2352;48.180;11.478;2023-03-26T12:33:21;11.50;99.50
4677;DHT22;2352;48.180;11.478;2023-03-26T12:36:28;11.50;99.80
4677;DHT22;2352;48.180;11.478;2023-03-26T12:39:36;11.60;99.40
4677;DHT22;2352;48.180;11.478;2023-03-26T12:43:02;11.50;98.90
4677;DHT22;2352;48.180;11.478;2023-03-26T12:46:26;11.50;99.10
4677;DHT22;2352;48.180;11.478;2023-03-26T12:49:50;11.30;99.20
4677;DHT22;2352;48.180;11.478;2023-03-26T12:52:59;11.40;99.10
4677;DHT22;2352;48.180;11.478;2023-03-26T12:56:15;11.40;99.20
4677;DHT22;2352;48.180;11.478;2023-03-26T12:59:34;11.50;99.20
4677;DHT22;2352;48.180;11.478;2023-03-26T13:06:21;11.30;98.50
4677;DHT22;2352;48.180;11.478;2023-03-26T13:09:48;11.30;99.50
4677;DHT22;2352;48.180;11.478;2023-03-26T13:13:09;11.30;99.10
4677;DHT22;2352;48.180;11.478;2023-03-26T13:16:17;11.40;99.80
4677;DHT22;2352;48.180;11.478;2023-03-26T13:19:26;11.40;99.10
4677;DHT22;2352;48.180;11.478;2023-03-26T13:22:38;11.50;99.00
4677;DHT22;2352;48.180;11.478;2023-03-26T13:25:47;11.50;98.90
4677;DHT22;2352;48.180;11.478;2023-03-26T13:28:59;11.50;98.90
4677;DHT22;2352;48.180;11.478;2023-03-26T13:32:07;11.40;99.10
4677;DHT22;2352;48.180;11.478;2023-03-26T13:35:21;11.30;99.10
4677;DHT22;2352;48.180;11.478;2023-03-26T13:38:35;11.50;99.20
4677;DHT22;2352;48.180;11.478;2023-03-26T13:41:53;11.50;99.00
4677;DHT22;2352;48.180;11.478;2023-03-26T13:45:04;11.40;98.80
4677;DHT22;2352;48.180;11.478;2023-03-26T13:48:15;11.40;98.70
4677;DHT22;2352;48.180;11.478;2023-03-26T13:51:22;11.30;98.70
4677;DHT22;2352;48.180;11.478;2023-03-26T13:54:30;11.40;98.90
4677;DHT22;2352;48.180;11.478;2023-03-26T13:57:37;11.50;98.90
4677;DHT22;2352;48.180;11.478;2023-03-26T14:00:50;11.60;98.90
4677;DHT22;2352;48.180;11.478;2023-03-26T14:03:59;11.70;98.10
4677;DHT22;2352;48.180;11.478;2023-03-26T14:07:04;11.50;96.10
4677;DHT22;2352;48.180;11.478;2023-03-26T14:10:14;11.00;94.70
4677;DHT22;2352;48.180;11.478;2023-03-26T14:13:23;10.50;95.50
4677;DHT22;2352;48.180;11.478;2023-03-26T14:16:34;10.70;96.00
4677;DHT22;2352;48.180;11.478;2023-03-26T14:23:42;10.90;94.90
4677;DHT22;2352;48.180;11.478;2023-03-26T14:27:23;11.20;94.00
4677;DHT22;2352;48.180;11.478;2023-03-26T14:30:50;10.90;93.40
4677;DHT22;2352;48.180;11.478;2023-03-26T14:34:15;11.10;93.80
4677;DHT22;2352;48.180;11.478;2023-03-26T14:37:37;11.20;94.00
4677;DHT22;2352;48.180;11.478;2023-03-26T14:40:54;11.30;93.40
4677;DHT22;2352;48.180;11.478;2023-03-26T14:44:24;11.30;93.00
4677;DHT22;2352;48.180;11.478;2023-03-26T14:51:39;11.40;92.90
4677;DHT22;2352;48.180;11.478;2023-03-26T14:54:49;11.20;93.30
4677;DHT22;2352;48.180;11.478;2023-03-26T15:01:49;11.40;93.30
4677;DHT22;2352;48.180;11.478;2023-03-26T15:12:49;11.40;93.80
4677;DHT22;2352;48.180;11.478;2023-03-26T15:19:53;11.40;94.20
4677;DHT22;2352;48.180;11.478;2023-03-26T15:27:22;11.50;94.10
4677;DHT22;2352;48.180;11.478;2023-03-26T15:30:56;11.50;94.40
4677;DHT22;2352;48.180;11.478;2023-03-26T15:41:45;11.60;95.10
4677;DHT22;2352;48.180;11.478;2023-03-26T15:44:53;11.60;95.00
4677;DHT22;2352;48.180;11.478;2023-03-26T15:51:44;11.50;95.40
4677;DHT22;2352;48.180;11.478;2023-03-26T15:54:54;11.40;95.90
4677;DHT22;2352;48.180;11.478;2023-03-26T15:58:06;11.20;96.20
4677;DHT22;2352;48.180;11.478;2023-03-26T16:01:15;11.00;92.10
4677;DHT22;2352;48.180;11.478;2023-03-26T16:04:34;10.80;90.50
4677;DHT22;2352;48.180;11.478;2023-03-26T16:07:58;10.80;90.40
4677;DHT22;2352;48.180;11.478;2023-03-26T16:11:05;10.80;89.80
4677;DHT22;2352;48.180;11.478;2023-03-26T16:14:17;10.90;89.50
4677;DHT22;2352;48.180;11.478;2023-03-26T16:17:24;10.90;89.10
4677;DHT22;2352;48.180;11.478;2023-03-26T16:20:32;10.60;90.40
4677;DHT22;2352;48.180;11.478;2023-03-26T16:23:53;10.60;91.30
4677;DHT22;2352;48.180;11.478;2023-03-26T16:30:33;10.70;92.00
4677;DHT22;2352;48.180;11.478;2023-03-26T16:33:37;10.80;91.90
4677;DHT22;2352;48.180;11.478;2023-03-26T16:36:43;10.70;92.00
4677;DHT22;2352;48.180;11.478;2023-03-26T16:39:51;10.80;92.40
4677;DHT22;2352;48.180;11.478;2023-03-26T16:43:02;10.80;92.40
4677;DHT22;2352;48.180;11.478;2023-03-26T16:46:15;10.80;92.30
4677;DHT22;2352;48.180;11.478;2023-03-26T16:49:29;10.70;92.90
4677;DHT22;2352;48.180;11.478;2023-03-26T16:52:43;10.50;93.10
4677;DHT22;2352;48.180;11.478;2023-03-26T16:55:53;10.50;93.60
4677;DHT22;2352;48.180;11.478;2023-03-26T16:59:00;10.60;93.60
4677;DHT22;2352;48.180;11.478;2023-03-26T17:02:16;10.60;93.50
4677;DHT22;2352;48.180;11.478;2023-03-26T17:05:29;10.60;93.60
4677;DHT22;2352;48.180;11.478;2023-03-26T17:08:43;10.50;94.00
4677;DHT22;2352;48.180;11.478;2023-03-26T17:11:55;10.50;93.60
4677;DHT22;2352;48.180;11.478;2023-03-26T17:15:19;10.50;93.60
4677;DHT22;2352;48.180;11.478;2023-03-26T17:18:32;10.50;93.70
4677;DHT22;2352;48.180;11.478;2023-03-26T17:21:44;10.50;93.70
4677;DHT22;2352;48.180;11.478;2023-03-26T17:24:54;10.50;93.60
4677;DHT22;2352;48.180;11.478;2023-03-26T17:28:14;10.50;93.50
4677;DHT22;2352;48.180;11.478;2023-03-26T17:31:24;10.50;93.50
4677;DHT22;2352;48.180;11.478;2023-03-26T17:34:51;10.60;93.50
4677;DHT22;2352;48.180;11.478;2023-03-26T17:37:56;10.50;93.30
4677;DHT22;2352;48.180;11.478;2023-03-26T17:41:00;10.40;93.70
4677;DHT22;2352;48.180;11.478;2023-03-26T17:44:39;10.40;94.10
4677;DHT22;2352;48.180;11.478;2023-03-26T17:47:45;10.30;94.60
4677;DHT22;2352;48.180;11.478;2023-03-26T17:50:53;10.20;95.30
4677;DHT22;2352;48.180;11.478;2023-03-26T17:53:58;10.10;95.90
4677;DHT22;2352;48.180;11.478;2023-03-26T17:57:05;10.00;96.80
4677;DHT22;2352;48.180;11.478;2023-03-26T18:00:15;9.80;97.60
4677;DHT22;2352;48.180;11.478;2023-03-26T18:03:21;9.70;99.30
4677;DHT22;2352;48.180;11.478;2023-03-26T18:06:39;9.50;99.10
4677;DHT22;2352;48.180;11.478;2023-03-26T18:09:59;9.40;98.50
4677;DHT22;2352;48.180;11.478;2023-03-26T18:13:22;9.30;98.00
4677;DHT22;2352;48.180;11.478;2023-03-26T18:16:36;9.40;98.00
4677;DHT22;2352;48.180;11.478;2023-03-26T18:19:48;9.40;97.50
4677;DHT22;2352;48.180;11.478;2023-03-26T18:22:51;9.50;97.60
4677;DHT22;2352;48.180;11.478;2023-03-26T18:25:57;9.40;96.90
4677;DHT22;2352;48.180;11.478;2023-03-26T18:29:18;9.40;96.60
4677;DHT22;2352;48.180;11.478;2023-03-26T18:32:23;9.40;96.70
4677;DHT22;2352;48.180;11.478;2023-03-26T18:35:38;9.30;96.50
4677;DHT22;2352;48.180;11.478;2023-03-26T18:38:41;9.10;96.70
4677;DHT22;2352;48.180;11.478;2023-03-26T18:41:44;9.00;96.70
4677;DHT22;2352;48.180;11.478;2023-03-26T18:44:49;8.80;97.00
4677;DHT22;2352;48.180;11.478;2023-03-26T18:47:55;8.70;97.40
4677;DHT22;2352;48.180;11.478;2023-03-26T18:51:00;8.80;97.00
4677;DHT22;2352;48.180;11.478;2023-03-26T18:54:07;8.90;97.10
4677;DHT22;2352;48.180;11.478;2023-03-26T18:57:19;8.70;97.40
4677;DHT22;2352;48.180;11.478;2023-03-26T19:00:25;8.70;97.50
4677;DHT22;2352;48.180;11.478;2023-03-26T19:03:33;8.70;97.40
4677;DHT22;2352;48.180;11.478;2023-03-26T19:06:39;8.70;97.30
4677;DHT22;2352;48.180;11.478;2023-03-26T19:09:42;8.80;97.30
4677;DHT22;2352;48.180;11.478;2023-03-26T19:12:53;8.50;97.80
4677;DHT22;2352;48.180;11.478;2023-03-26T19:15:58;8.60;97.90
4677;DHT22;2352;48.180;11.478;2023-03-26T19:19:05;8.60;97.80
4677;DHT22;2352;48.180;11.478;2023-03-26T19:22:10;8.40;98.20
4677;DHT22;2352;48.180;11.478;2023-03-26T19:25:19;8.40;98.40
4677;DHT22;2352;48.180;11.478;2023-03-26T19:28:25;8.50;98.60
4677;DHT22;2352;48.180;11.478;2023-03-26T19:31:33;8.60;98.30
4677;DHT22;2352;48.180;11.478;2023-03-26T19:34:38;8.60;98.10
4677;DHT22;2352;48.180;11.478;2023-03-26T19:37:48;8.60;98.40
4677;DHT22;2352;48.180;11.478;2023-03-26T19:40:53;8.60;98.50
4677;DHT22;2352;48.180;11.478;2023-03-26T19:43:59;8.60;98.50
4677;DHT22;2352;48.180;11.478;2023-03-26T19:47:06;8.60;98.60
4677;DHT22;2352;48.180;11.478;2023-03-26T19:50:19;8.60;98.50
4677;DHT22;2352;48.180;11.478;2023-03-26T19:53:30;8.60;98.40
4677;DHT22;2352;48.180;11.478;2023-03-26T19:56:33;8.70;98.30
4677;DHT22;2352;48.180;11.478;2023-03-26T19:59:36;8.60;98.40
4677;DHT22;2352;48.180;11.478;2023-03-26T20:02:41;8.70;98.30
4677;DHT22;2352;48.180;11.478;2023-03-26T20:05:45;8.50;98.60
4677;DHT22;2352;48.180;11.478;2023-03-26T20:08:48;8.60;98.50
4677;DHT22;2352;48.180;11.478;2023-03-26T20:11:52;8.50;98.40
4677;DHT22;2352;48.180;11.478;2023-03-26T20:14:55;8.60;98.30
4677;DHT22;2352;48.180;11.478;2023-03-26T20:17:59;8.50;98.20
4677;DHT22;2352;48.180;11.478;2023-03-26T20:21:08;8.50;98.50
4677;DHT22;2352;48.180;11.478;2023-03-26T20:24:13;8.70;97.80
4677;DHT22;2352;48.180;11.478;2023-03-26T20:27:16;8.40;98.00
4677;DHT22;2352;48.180;11.478;2023-03-26T20:30:20;8.50;97.80
4677;DHT22;2352;48.180;11.478;2023-03-26T20:33:39;8.40;97.60
4677;DHT22;2352;48.180;11.478;2023-03-26T20:36:43;8.60;97.50
4677;DHT22;2352;48.180;11.478;2023-03-26T20:39:47;8.60;97.00
4677;DHT22;2352;48.180;11.478;2023-03-26T20:42:50;8.60;97.40
4677;DHT22;2352;48.180;11.478;2023-03-26T20:45:53;8.70;97.00
4677;DHT22;2352;48.180;11.478;2023-03-26T20:48:59;8.50;97.60
4677;DHT22;2352;48.180;11.478;2023-03-26T20:52:02;8.40;97.90
4677;DHT22;2352;48.180;11.478;2023-03-26T20:55:08;8.40;98.40
4677;DHT22;2352;48.180;11.478;2023-03-26T20:58:12;8.50;97.80
4677;DHT22;2352;48.180;11.478;2023-03-26T21:01:16;8.40;97.60
4677;DHT22;2352;48.180;11.478;2023-03-26T21:04:21;8.50;97.50
4677;DHT22;2352;48.180;11.478;2023-03-26T21:07:25;8.30;97.80
4677;DHT22;2352;48.180;11.478;2023-03-26T21:10:29;8.50;97.70
4677;DHT22;2352;48.180;11.478;2023-03-26T21:13:36;8.50;97.10
4677;DHT22;2352;48.180;11.478;2023-03-26T21:16:41;8.50;96.70
4677;DHT22;2352;48.180;11.478;2023-03-26T21:19:46;8.40;97.00
4677;DHT22;2352;48.180;11.478;2023-03-26T21:22:53;8.40;96.60
4677;DHT22;2352;48.180;11.478;2023-03-26T21:26:05;8.40;96.60
4677;DHT22;2352;48.180;11.478;2023-03-26T21:29:13;8.30;96.60
4677;DHT22;2352;48.180;11.478;2023-03-26T21:32:16;8.50;96.50
4677;DHT22;2352;48.180;11.478;2023-03-26T21:35:21;8.50;96.20
4677;DHT22;2352;48.180;11.478;2023-03-26T21:38:25;8.30;96.50